sensor_id;sensor_type;location;lat;lon;timestamp;pressure;altitude;pressure_sealevel;temperature;humidity
48882;BME280;57063;51.406;-2.402;2022-10-16T00:01:23;99456.75;;;15.71;86.89
48882;BME280;57063;51.406;-2.402;2022-10-16T00:03:49;99457.66;;;15.54;86.34
48882;BME280;57063;51.406;-2.402;2022-10-16T00:06:17;99458.03;;;15.59;86.59
48882;BME280;57063;51.406;-2.402;2022-10-16T00:08:43;99447.00;;;15.29;86.72
48882;BME280;57063;51.406;-2.402;2022-10-16T00:11:17;99451.66;;;15.35;87.11
48882;BME280;57063;51.406;-2.402;2022-10-16T00:13:45;99450.06;;;15.51;86.33
48882;BME280;57063;51.406;-2.402;2022-10-16T00:16:11;99448.72;;;15.46;86.31
48882;BME280;57063;51.406;-2.402;2022-10-16T00:18:37;99450.19;;;15.41;86.88
48882;BME280;57063;51.406;-2.402;2022-10-16T00:21:10;99443.84;;;15.25;87.35
48882;BME280;57063;51.406;-2.402;2022-10-16T00:23:36;99443.47;;;15.20;88.23
48882;BME280;57063;51.406;-2.402;2022-10-16T00:26:04;99440.38;;;15.25;88.22
48882;BME280;57063;51.406;-2.402;2022-10-16T00:28:30;99442.44;;;15.13;88.69
48882;BME280;57063;51.406;-2.402;2022-10-16T00:30:56;99449.81;;;15.36;87.82
48882;BME280;57063;51.406;-2.402;2022-10-16T00:33:22;99448.72;;;15.12;88.65
48882;BME280;57063;51.406;-2.402;2022-10-16T00:35:48;99463.19;;;15.00;89.39
48882;BME280;57063;51.406;-2.402;2022-10-16T00:38:14;99468.25;;;15.19;88.71
48882;BME280;57063;51.406;-2.402;2022-10-16T00:40:40;99454.25;;;15.27;88.60
48882;BME280;57063;51.406;-2.402;2022-10-16T00:43:35;99456.00;;;15.18;88.97
48882;BME280;57063;51.406;-2.402;2022-10-16T00:46:00;99459.78;;;15.07;89.66
48882;BME280;57063;51.406;-2.402;2022-10-16T00:48:26;99464.00;;;15.00;89.71
48882;BME280;57063;51.406;-2.402;2022-10-16T00:50:52;99463.88;;;14.76;90.38
48882;BME280;57063;51.406;-2.402;2022-10-16T00:53:18;99471.28;;;14.98;89.77
48882;BME280;57063;51.406;-2.402;2022-10-16T00:55:44;99469.09;;;14.94;89.67
48882;BME280;57063;51.406;-2.402;2022-10-16T00:58:11;99477.75;;;14.78;89.89
48882;BME280;57063;51.406;-2.402;2022-10-16T01:00:36;99477.97;;;14.66;90.08
48882;BME280;57063;51.406;-2.402;2022-10-16T01:03:21;99473.50;;;14.49;90.62
48882;BME280;57063;51.406;-2.402;2022-10-16T01:05:51;99488.34;;;14.60;89.98
48882;BME280;57063;51.406;-2.402;2022-10-16T01:08:34;99487.91;;;14.91;87.31
48882;BME280;57063;51.406;-2.402;2022-10-16T01:14:22;99486.66;;;14.77;86.87
48882;BME280;57063;51.406;-2.402;2022-10-16T01:17:02;99491.03;;;14.50;87.15
48882;BME280;57063;51.406;-2.402;2022-10-16T01:22:37;99499.03;;;14.76;86.58
48882;BME280;57063;51.406;-2.402;2022-10-16T01:25:09;99499.31;;;14.19;88.16
48882;BME280;57063;51.406;-2.402;2022-10-16T01:27:40;99499.59;;;14.62;86.64
48882;BME280;57063;51.406;-2.402;2022-10-16T01:30:13;99508.25;;;14.54;86.98
48882;BME280;57063;51.406;-2.402;2022-10-16T01:32:43;99510.66;;;14.47;87.38
48882;BME280;57063;51.406;-2.402;2022-10-16T01:35:28;99510.97;;;14.62;87.04
48882;BME280;57063;51.406;-2.402;2022-10-16T01:40:37;99515.09;;;14.47;87.59
48882;BME280;57063;51.406;-2.402;2022-10-16T01:43:08;99518.34;;;14.41;87.15
48882;BME280;57063;51.406;-2.402;2022-10-16T01:45:38;99520.69;;;14.44;86.93
48882;BME280;57063;51.406;-2.402;2022-10-16T01:48:05;99525.31;;;14.42;86.75
48882;BME280;57063;51.406;-2.402;2022-10-16T01:50:35;99528.97;;;14.31;87.69
48882;BME280;57063;51.406;-2.402;2022-10-16T01:53:03;99523.69;;;14.49;86.56
48882;BME280;57063;51.406;-2.402;2022-10-16T01:55:33;99527.00;;;14.15;88.44
48882;BME280;57063;51.406;-2.402;2022-10-16T01:58:01;99534.63;;;14.18;87.55
48882;BME280;57063;51.406;-2.402;2022-10-16T02:00:28;99524.16;;;14.26;87.36
48882;BME280;57063;51.406;-2.402;2022-10-16T02:02:54;99531.56;;;14.41;86.73
48882;BME280;57063;51.406;-2.402;2022-10-16T02:08:24;99551.31;;;14.37;86.42
48882;BME280;57063;51.406;-2.402;2022-10-16T02:10:55;99550.22;;;14.12;87.81
48882;BME280;57063;51.406;-2.402;2022-10-16T02:15:52;99551.84;;;14.40;86.95
48882;BME280;57063;51.406;-2.402;2022-10-16T02:18:18;99561.53;;;14.32;87.99
48882;BME280;57063;51.406;-2.402;2022-10-16T02:20:58;99566.41;;;13.99;89.34
48882;BME280;57063;51.406;-2.402;2022-10-16T02:23:51;99571.47;;;14.20;88.76
48882;BME280;57063;51.406;-2.402;2022-10-16T02:26:28;99562.34;;;14.50;87.58
48882;BME280;57063;51.406;-2.402;2022-10-16T02:29:00;99564.84;;;14.34;88.54
48882;BME280;57063;51.406;-2.402;2022-10-16T02:31:32;99569.00;;;14.54;87.47
48882;BME280;57063;51.406;-2.402;2022-10-16T02:33:59;99572.59;;;14.53;87.18
48882;BME280;57063;51.406;-2.402;2022-10-16T02:36:27;99573.88;;;14.49;87.67
48882;BME280;57063;51.406;-2.402;2022-10-16T02:38:53;99566.19;;;14.20;88.14
48882;BME280;57063;51.406;-2.402;2022-10-16T02:41:21;99580.06;;;14.22;88.62
48882;BME280;57063;51.406;-2.402;2022-10-16T02:43:47;99580.44;;;14.27;88.11
48882;BME280;57063;51.406;-2.402;2022-10-16T02:46:12;99577.84;;;14.17;88.42
48882;BME280;57063;51.406;-2.402;2022-10-16T02:48:38;99576.34;;;14.15;88.07
48882;BME280;57063;51.406;-2.402;2022-10-16T02:51:04;99588.13;;;14.20;88.82
48882;BME280;57063;51.406;-2.402;2022-10-16T02:53:30;99589.41;;;14.16;88.61
48882;BME280;57063;51.406;-2.402;2022-10-16T02:55:55;99592.03;;;14.16;88.91
48882;BME280;57063;51.406;-2.402;2022-10-16T02:58:21;99591.44;;;14.22;88.65
48882;BME280;57063;51.406;-2.402;2022-10-16T03:00:46;99595.41;;;14.08;88.97
48882;BME280;57063;51.406;-2.402;2022-10-16T03:03:12;99589.69;;;14.13;88.51
48882;BME280;57063;51.406;-2.402;2022-10-16T03:05:37;99602.53;;;13.98;89.40
48882;BME280;57063;51.406;-2.402;2022-10-16T03:08:03;99600.72;;;13.99;89.39
48882;BME280;57063;51.406;-2.402;2022-10-16T03:10:28;99599.06;;;13.98;89.36
48882;BME280;57063;51.406;-2.402;2022-10-16T03:12:54;99609.94;;;13.85;90.19
48882;BME280;57063;51.406;-2.402;2022-10-16T03:15:19;99612.94;;;14.00;89.23
48882;BME280;57063;51.406;-2.402;2022-10-16T03:17:45;99617.25;;;14.01;89.16
48882;BME280;57063;51.406;-2.402;2022-10-16T03:20:10;99617.25;;;14.01;89.12
48882;BME280;57063;51.406;-2.402;2022-10-16T03:22:36;99623.78;;;13.97;88.83
48882;BME280;57063;51.406;-2.402;2022-10-16T03:25:01;99629.94;;;13.87;89.64
48882;BME280;57063;51.406;-2.402;2022-10-16T03:27:27;99631.09;;;13.75;90.47
48882;BME280;57063;51.406;-2.402;2022-10-16T03:29:52;99643.16;;;13.78;89.99
48882;BME280;57063;51.406;-2.402;2022-10-16T03:32:18;99645.28;;;13.64;90.94
48882;BME280;57063;51.406;-2.402;2022-10-16T03:34:45;99656.50;;;13.76;90.69
48882;BME280;57063;51.406;-2.402;2022-10-16T03:37:10;99648.75;;;13.75;90.07
48882;BME280;57063;51.406;-2.402;2022-10-16T03:39:36;99663.31;;;13.79;90.28
48882;BME280;57063;51.406;-2.402;2022-10-16T03:42:01;99673.44;;;13.74;90.43
48882;BME280;57063;51.406;-2.402;2022-10-16T03:44:27;99679.13;;;13.79;90.17
48882;BME280;57063;51.406;-2.402;2022-10-16T03:46:52;99677.31;;;13.79;90.87
48882;BME280;57063;51.406;-2.402;2022-10-16T03:49:18;99686.88;;;13.90;90.88
48882;BME280;57063;51.406;-2.402;2022-10-16T03:51:43;99673.81;;;13.98;89.82
48882;BME280;57063;51.406;-2.402;2022-10-16T03:54:09;99689.31;;;14.11;89.54
48882;BME280;57063;51.406;-2.402;2022-10-16T03:56:35;99702.34;;;14.22;89.13
48882;BME280;57063;51.406;-2.402;2022-10-16T03:59:00;99701.16;;;14.35;88.76
48882;BME280;57063;51.406;-2.402;2022-10-16T04:01:26;99707.91;;;14.47;88.52
48882;BME280;57063;51.406;-2.402;2022-10-16T04:03:51;99714.44;;;14.53;88.08
48882;BME280;57063;51.406;-2.402;2022-10-16T04:06:16;99720.06;;;14.40;88.59
48882;BME280;57063;51.406;-2.402;2022-10-16T04:08:43;99729.28;;;14.26;89.89
48882;BME280;57063;51.406;-2.402;2022-10-16T04:11:09;99718.88;;;14.24;91.02
48882;BME280;57063;51.406;-2.402;2022-10-16T04:13:34;99710.41;;;14.58;89.68
48882;BME280;57063;51.406;-2.402;2022-10-16T04:15:59;99704.16;;;14.50;90.08
48882;BME280;57063;51.406;-2.402;2022-10-16T04:18:25;99705.16;;;14.76;88.73
48882;BME280;57063;51.406;-2.402;2022-10-16T04:20:53;99708.44;;;14.60;89.50
48882;BME280;57063;51.406;-2.402;2022-10-16T04:23:18;99706.94;;;14.48;89.88
48882;BME280;57063;51.406;-2.402;2022-10-16T04:25:44;99724.28;;;14.23;90.25
48882;BME280;57063;51.406;-2.402;2022-10-16T04:28:09;99729.88;;;14.20;90.03
48882;BME280;57063;51.406;-2.402;2022-10-16T04:30:37;99725.97;;;14.24;89.63
48882;BME280;57063;51.406;-2.402;2022-10-16T04:33:04;99724.19;;;14.15;89.53
48882;BME280;57063;51.406;-2.402;2022-10-16T04:35:29;99737.13;;;14.08;89.94
48882;BME280;57063;51.406;-2.402;2022-10-16T04:37:57;99741.88;;;13.95;90.06
48882;BME280;57063;51.406;-2.402;2022-10-16T04:40:23;99726.75;;;13.77;90.72
48882;BME280;57063;51.406;-2.402;2022-10-16T04:42:48;99733.41;;;13.81;89.97
48882;BME280;57063;51.406;-2.402;2022-10-16T04:45:14;99743.72;;;13.65;91.26
48882;BME280;57063;51.406;-2.402;2022-10-16T04:47:39;99753.72;;;13.52;91.33
48882;BME280;57063;51.406;-2.402;2022-10-16T04:50:05;99745.25;;;13.58;91.56
48882;BME280;57063;51.406;-2.402;2022-10-16T04:52:31;99754.41;;;13.54;91.09
48882;BME280;57063;51.406;-2.402;2022-10-16T04:54:57;99765.78;;;13.44;91.38
48882;BME280;57063;51.406;-2.402;2022-10-16T04:57:26;99772.44;;;13.48;91.70
48882;BME280;57063;51.406;-2.402;2022-10-16T04:59:52;99776.06;;;13.47;91.12
48882;BME280;57063;51.406;-2.402;2022-10-16T05:02:17;99790.22;;;13.46;91.30
48882;BME280;57063;51.406;-2.402;2022-10-16T05:04:43;99791.06;;;13.47;91.84
48882;BME280;57063;51.406;-2.402;2022-10-16T05:07:08;99791.63;;;13.41;92.08
48882;BME280;57063;51.406;-2.402;2022-10-16T05:09:34;99793.84;;;13.45;92.22
48882;BME280;57063;51.406;-2.402;2022-10-16T05:11:59;99796.06;;;13.50;91.64
48882;BME280;57063;51.406;-2.402;2022-10-16T05:14:25;99791.47;;;13.42;91.91
48882;BME280;57063;51.406;-2.402;2022-10-16T05:16:50;99797.03;;;13.39;91.93
48882;BME280;57063;51.406;-2.402;2022-10-16T05:19:17;99808.94;;;13.34;92.56
48882;BME280;57063;51.406;-2.402;2022-10-16T05:21:42;99812.84;;;13.29;92.81
48882;BME280;57063;51.406;-2.402;2022-10-16T05:24:08;99807.91;;;13.25;93.07
48882;BME280;57063;51.406;-2.402;2022-10-16T05:26:34;99819.69;;;13.21;93.08
48882;BME280;57063;51.406;-2.402;2022-10-16T05:29:00;99821.25;;;13.23;93.18
48882;BME280;57063;51.406;-2.402;2022-10-16T05:31:26;99829.88;;;13.25;93.12
48882;BME280;57063;51.406;-2.402;2022-10-16T05:33:51;99835.13;;;13.25;93.05
48882;BME280;57063;51.406;-2.402;2022-10-16T05:36:16;99839.28;;;13.28;93.21
48882;BME280;57063;51.406;-2.402;2022-10-16T05:38:43;99840.72;;;13.32;93.55
48882;BME280;57063;51.406;-2.402;2022-10-16T05:41:09;99839.91;;;13.32;93.99
48882;BME280;57063;51.406;-2.402;2022-10-16T05:43:35;99842.69;;;13.40;93.32
48882;BME280;57063;51.406;-2.402;2022-10-16T05:46:03;99839.47;;;13.36;93.53
48882;BME280;57063;51.406;-2.402;2022-10-16T05:48:29;99846.25;;;13.29;93.86
48882;BME280;57063;51.406;-2.402;2022-10-16T05:51:05;99853.94;;;13.11;94.92
48882;BME280;57063;51.406;-2.402;2022-10-16T05:53:34;99853.66;;;13.04;95.33
48882;BME280;57063;51.406;-2.402;2022-10-16T05:56:00;99862.13;;;13.08;94.96
48882;BME280;57063;51.406;-2.402;2022-10-16T05:58:29;99855.84;;;12.99;95.91
48882;BME280;57063;51.406;-2.402;2022-10-16T06:00:56;99865.84;;;12.96;95.20
48882;BME280;57063;51.406;-2.402;2022-10-16T06:03:22;99853.50;;;12.65;95.67
48882;BME280;57063;51.406;-2.402;2022-10-16T06:05:47;99873.56;;;12.57;95.83
48882;BME280;57063;51.406;-2.402;2022-10-16T06:08:13;99873.03;;;12.42;96.17
48882;BME280;57063;51.406;-2.402;2022-10-16T06:10:38;99873.88;;;12.21;96.33
48882;BME280;57063;51.406;-2.402;2022-10-16T06:13:04;99876.38;;;12.02;97.32
48882;BME280;57063;51.406;-2.402;2022-10-16T06:15:29;99877.84;;;11.83;98.16
48882;BME280;57063;51.406;-2.402;2022-10-16T06:17:54;99864.25;;;11.67;98.66
48882;BME280;57063;51.406;-2.402;2022-10-16T06:20:20;99877.19;;;11.59;98.90
48882;BME280;57063;51.406;-2.402;2022-10-16T06:22:45;99865.16;;;11.45;99.02
48882;BME280;57063;51.406;-2.402;2022-10-16T06:25:11;99864.44;;;11.43;99.76
48882;BME280;57063;51.406;-2.402;2022-10-16T06:27:39;99866.47;;;11.39;100.00
48882;BME280;57063;51.406;-2.402;2022-10-16T06:30:06;99865.44;;;11.30;100.00
48882;BME280;57063;51.406;-2.402;2022-10-16T06:32:31;99871.06;;;11.26;100.00
48882;BME280;57063;51.406;-2.402;2022-10-16T06:34:57;99881.09;;;11.21;100.00
48882;BME280;57063;51.406;-2.402;2022-10-16T06:37:22;99876.94;;;11.18;100.00
48882;BME280;57063;51.406;-2.402;2022-10-16T06:39:48;99884.31;;;11.13;100.00
48882;BME280;57063;51.406;-2.402;2022-10-16T06:42:13;99892.31;;;11.23;100.00
48882;BME280;57063;51.406;-2.402;2022-10-16T06:44:39;99902.38;;;11.18;100.00
48882;BME280;57063;51.406;-2.402;2022-10-16T06:47:04;99899.75;;;11.18;100.00
48882;BME280;57063;51.406;-2.402;2022-10-16T06:49:29;99907.16;;;11.24;100.00
48882;BME280;57063;51.406;-2.402;2022-10-16T06:51:55;99910.72;;;11.11;100.00
48882;BME280;57063;51.406;-2.402;2022-10-16T06:54:20;99912.88;;;11.06;100.00
48882;BME280;57063;51.406;-2.402;2022-10-16T06:56:46;99925.53;;;11.13;100.00
48882;BME280;57063;51.406;-2.402;2022-10-16T06:59:11;99924.22;;;11.18;100.00
48882;BME280;57063;51.406;-2.402;2022-10-16T07:01:37;99928.41;;;11.21;100.00
48882;BME280;57063;51.406;-2.402;2022-10-16T07:04:02;99930.44;;;11.28;100.00
48882;BME280;57063;51.406;-2.402;2022-10-16T07:06:31;99936.41;;;11.42;100.00
48882;BME280;57063;51.406;-2.402;2022-10-16T07:08:56;99945.59;;;11.47;100.00
48882;BME280;57063;51.406;-2.402;2022-10-16T07:11:23;99951.09;;;11.44;100.00
48882;BME280;57063;51.406;-2.402;2022-10-16T07:13:50;99950.09;;;11.57;100.00
48882;BME280;57063;51.406;-2.402;2022-10-16T07:16:20;99942.81;;;11.71;100.00
48882;BME280;57063;51.406;-2.402;2022-10-16T07:18:46;99960.69;;;12.00;100.00
48882;BME280;57063;51.406;-2.402;2022-10-16T07:21:16;99951.66;;;12.14;100.00
48882;BME280;57063;51.406;-2.402;2022-10-16T07:23:42;99968.34;;;12.36;100.00
48882;BME280;57063;51.406;-2.402;2022-10-16T07:26:09;99979.97;;;12.33;100.00
48882;BME280;57063;51.406;-2.402;2022-10-16T07:28:36;99973.94;;;12.42;100.00
48882;BME280;57063;51.406;-2.402;2022-10-16T07:31:03;99980.44;;;12.59;99.93
48882;BME280;57063;51.406;-2.402;2022-10-16T07:33:29;99981.25;;;12.60;99.57
48882;BME280;57063;51.406;-2.402;2022-10-16T07:35:55;99976.06;;;12.69;99.39
48882;BME280;57063;51.406;-2.402;2022-10-16T07:38:21;99983.31;;;12.77;99.57
48882;BME280;57063;51.406;-2.402;2022-10-16T07:40:47;99983.25;;;12.88;99.48
48882;BME280;57063;51.406;-2.402;2022-10-16T07:43:13;99981.38;;;13.00;99.83
48882;BME280;57063;51.406;-2.402;2022-10-16T07:45:47;99982.88;;;13.45;99.06
48882;BME280;57063;51.406;-2.402;2022-10-16T07:48:13;99989.63;;;14.67;94.26
48882;BME280;57063;51.406;-2.402;2022-10-16T07:50:38;99997.69;;;15.23;92.38
48882;BME280;57063;51.406;-2.402;2022-10-16T07:53:03;99998.78;;;15.30;92.85
48882;BME280;57063;51.406;-2.402;2022-10-16T07:55:29;99995.44;;;16.11;89.63
48882;BME280;57063;51.406;-2.402;2022-10-16T07:57:54;100001.97;;;16.17;85.14
48882;BME280;57063;51.406;-2.402;2022-10-16T08:00:20;100002.47;;;15.84;84.06
48882;BME280;57063;51.406;-2.402;2022-10-16T08:02:46;100000.00;;;15.73;85.32
48882;BME280;57063;51.406;-2.402;2022-10-16T08:05:11;100006.06;;;15.83;85.26
48882;BME280;57063;51.406;-2.402;2022-10-16T08:07:36;100014.84;;;16.30;82.52
48882;BME280;57063;51.406;-2.402;2022-10-16T08:10:02;100023.09;;;16.26;83.06
48882;BME280;57063;51.406;-2.402;2022-10-16T08:12:28;100018.91;;;16.96;80.23
48882;BME280;57063;51.406;-2.402;2022-10-16T08:14:53;100018.44;;;17.61;77.46
48882;BME280;57063;51.406;-2.402;2022-10-16T08:17:19;100021.72;;;18.65;73.87
48882;BME280;57063;51.406;-2.402;2022-10-16T08:19:47;100022.75;;;18.88;71.25
48882;BME280;57063;51.406;-2.402;2022-10-16T08:22:14;100029.03;;;19.12;70.29
48882;BME280;57063;51.406;-2.402;2022-10-16T08:24:40;100032.97;;;18.50;70.21
48882;BME280;57063;51.406;-2.402;2022-10-16T08:27:06;100013.22;;;18.77;68.55
48882;BME280;57063;51.406;-2.402;2022-10-16T08:29:32;100029.81;;;20.70;62.17
48882;BME280;57063;51.406;-2.402;2022-10-16T08:31:58;100029.72;;;23.90;52.23
48882;BME280;57063;51.406;-2.402;2022-10-16T08:34:23;100044.38;;;23.94;49.50
48882;BME280;57063;51.406;-2.402;2022-10-16T08:36:49;100044.00;;;26.29;44.26
48882;BME280;57063;51.406;-2.402;2022-10-16T08:39:15;100037.34;;;28.55;39.12
48882;BME280;57063;51.406;-2.402;2022-10-16T08:42:13;100032.91;;;30.53;34.13
48882;BME280;57063;51.406;-2.402;2022-10-16T08:47:45;100028.72;;;33.78;28.45
48882;BME280;57063;51.406;-2.402;2022-10-16T08:50:18;100027.03;;;31.68;30.19
48882;BME280;57063;51.406;-2.402;2022-10-16T08:52:47;100027.41;;;33.28;29.06
48882;BME280;57063;51.406;-2.402;2022-10-16T08:57:58;100041.13;;;35.84;25.54
48882;BME280;57063;51.406;-2.402;2022-10-16T09:00:24;100036.84;;;36.23;25.15
48882;BME280;57063;51.406;-2.402;2022-10-16T09:03:05;100047.13;;;34.44;26.22
48882;BME280;57063;51.406;-2.402;2022-10-16T09:16:18;99999.94;;;34.90;25.62
48882;BME280;57063;51.406;-2.402;2022-10-16T09:21:44;100039.88;;;33.24;28.16
48882;BME280;57063;51.406;-2.402;2022-10-16T09:24:20;100021.50;;;34.71;26.49
48882;BME280;57063;51.406;-2.402;2022-10-16T09:26:47;100044.34;;;32.38;29.31
48882;BME280;57063;51.406;-2.402;2022-10-16T09:29:14;100046.94;;;30.21;32.17
48882;BME280;57063;51.406;-2.402;2022-10-16T09:31:40;100024.19;;;32.01;30.52
48882;BME280;57063;51.406;-2.402;2022-10-16T09:34:34;100034.53;;;33.44;27.64
48882;BME280;57063;51.406;-2.402;2022-10-16T09:36:59;100035.50;;;33.75;27.75
48882;BME280;57063;51.406;-2.402;2022-10-16T09:39:26;100044.13;;;31.29;30.61
48882;BME280;57063;51.406;-2.402;2022-10-16T09:41:51;100043.00;;;30.40;32.42
48882;BME280;57063;51.406;-2.402;2022-10-16T09:44:27;100044.47;;;32.21;30.89
48882;BME280;57063;51.406;-2.402;2022-10-16T09:47:04;100054.44;;;29.38;32.95
48882;BME280;57063;51.406;-2.402;2022-10-16T09:49:30;100048.09;;;30.54;32.31
48882;BME280;57063;51.406;-2.402;2022-10-16T09:52:25;100048.19;;;30.30;32.97
48882;BME280;57063;51.406;-2.402;2022-10-16T09:55:02;100053.53;;;30.54;32.58
48882;BME280;57063;51.406;-2.402;2022-10-16T09:57:28;100055.78;;;32.67;30.14
48882;BME280;57063;51.406;-2.402;2022-10-16T09:59:57;100050.00;;;30.87;31.38
48882;BME280;57063;51.406;-2.402;2022-10-16T10:02:31;100053.97;;;30.34;32.15
48882;BME280;57063;51.406;-2.402;2022-10-16T10:04:59;100043.63;;;31.93;30.43
48882;BME280;57063;51.406;-2.402;2022-10-16T10:07:31;100039.72;;;30.72;31.46
48882;BME280;57063;51.406;-2.402;2022-10-16T10:10:01;100032.50;;;33.14;28.68
48882;BME280;57063;51.406;-2.402;2022-10-16T10:12:28;100035.19;;;33.67;27.57
48882;BME280;57063;51.406;-2.402;2022-10-16T10:15:02;100030.31;;;33.64;28.10
48882;BME280;57063;51.406;-2.402;2022-10-16T10:17:29;100035.38;;;34.44;27.27
48882;BME280;57063;51.406;-2.402;2022-10-16T10:20:00;100043.00;;;34.31;26.85
48882;BME280;57063;51.406;-2.402;2022-10-16T10:22:45;100041.38;;;33.04;27.86
48882;BME280;57063;51.406;-2.402;2022-10-16T10:33:49;100030.34;;;37.36;24.47
48882;BME280;57063;51.406;-2.402;2022-10-16T10:36:39;100033.97;;;38.50;22.50
48882;BME280;57063;51.406;-2.402;2022-10-16T10:39:15;100031.28;;;38.64;22.62
48882;BME280;57063;51.406;-2.402;2022-10-16T10:52:41;100028.06;;;38.76;22.18
48882;BME280;57063;51.406;-2.402;2022-10-16T11:01:26;100032.84;;;37.03;21.98
48882;BME280;57063;51.406;-2.402;2022-10-16T11:06:36;100039.41;;;37.79;21.94
48882;BME280;57063;51.406;-2.402;2022-10-16T11:09:18;100040.13;;;37.42;21.84
48882;BME280;57063;51.406;-2.402;2022-10-16T11:11:54;100028.72;;;37.78;22.58
48882;BME280;57063;51.406;-2.402;2022-10-16T11:17:08;100014.91;;;35.88;22.73
48882;BME280;57063;51.406;-2.402;2022-10-16T11:22:27;100016.56;;;34.32;24.78
48882;BME280;57063;51.406;-2.402;2022-10-16T11:27:40;100022.00;;;35.09;24.24
48882;BME280;57063;51.406;-2.402;2022-10-16T11:30:16;100023.38;;;35.17;24.33
48882;BME280;57063;51.406;-2.402;2022-10-16T11:35:42;100028.56;;;34.92;24.84
48882;BME280;57063;51.406;-2.402;2022-10-16T11:47:31;100037.84;;;33.09;26.03
48882;BME280;57063;51.406;-2.402;2022-10-16T11:52:46;100015.75;;;32.95;27.41
48882;BME280;57063;51.406;-2.402;2022-10-16T11:55:21;100013.88;;;32.63;26.85
48882;BME280;57063;51.406;-2.402;2022-10-16T11:58:02;100013.44;;;33.14;26.21
48882;BME280;57063;51.406;-2.402;2022-10-16T12:00:40;100021.19;;;31.37;27.90
48882;BME280;57063;51.406;-2.402;2022-10-16T12:03:40;100014.06;;;31.75;28.35
48882;BME280;57063;51.406;-2.402;2022-10-16T12:06:36;100017.63;;;30.80;29.04
48882;BME280;57063;51.406;-2.402;2022-10-16T12:09:04;100009.91;;;31.06;29.84
48882;BME280;57063;51.406;-2.402;2022-10-16T12:14:21;100014.25;;;30.11;29.28
48882;BME280;57063;51.406;-2.402;2022-10-16T12:22:29;100019.53;;;28.77;32.63
48882;BME280;57063;51.406;-2.402;2022-10-16T12:24:56;100000.84;;;28.76;32.43
48882;BME280;57063;51.406;-2.402;2022-10-16T12:27:30;100001.31;;;28.84;33.03
48882;BME280;57063;51.406;-2.402;2022-10-16T12:30:00;100009.81;;;25.98;35.82
48882;BME280;57063;51.406;-2.402;2022-10-16T12:32:35;100007.34;;;25.31;37.96
48882;BME280;57063;51.406;-2.402;2022-10-16T12:35:02;100006.38;;;25.70;37.80
48882;BME280;57063;51.406;-2.402;2022-10-16T12:37:36;100004.69;;;26.53;37.13
48882;BME280;57063;51.406;-2.402;2022-10-16T12:40:15;100022.22;;;24.47;40.40
48882;BME280;57063;51.406;-2.402;2022-10-16T12:42:48;100015.69;;;23.53;41.75
48882;BME280;57063;51.406;-2.402;2022-10-16T12:45:31;100007.78;;;23.03;43.32
48882;BME280;57063;51.406;-2.402;2022-10-16T12:48:02;100009.34;;;24.09;42.91
48882;BME280;57063;51.406;-2.402;2022-10-16T12:50:34;100003.47;;;23.37;43.36
48882;BME280;57063;51.406;-2.402;2022-10-16T12:53:01;100004.34;;;22.60;45.24
48882;BME280;57063;51.406;-2.402;2022-10-16T12:55:35;99996.31;;;22.38;45.64
48882;BME280;57063;51.406;-2.402;2022-10-16T13:01:24;100002.38;;;22.10;46.21
48882;BME280;57063;51.406;-2.402;2022-10-16T13:04:08;99996.00;;;22.11;45.83
48882;BME280;57063;51.406;-2.402;2022-10-16T13:06:57;99985.16;;;22.34;44.70
48882;BME280;57063;51.406;-2.402;2022-10-16T13:18:32;99970.78;;;21.99;45.63
48882;BME280;57063;51.406;-2.402;2022-10-16T13:28:49;99959.84;;;21.57;45.81
48882;BME280;57063;51.406;-2.402;2022-10-16T13:31:19;99965.34;;;21.56;46.13
48882;BME280;57063;51.406;-2.402;2022-10-16T13:33:51;99956.03;;;22.03;45.98
48882;BME280;57063;51.406;-2.402;2022-10-16T13:36:22;99963.88;;;22.05;45.72
48882;BME280;57063;51.406;-2.402;2022-10-16T13:38:48;99960.13;;;21.63;46.04
48882;BME280;57063;51.406;-2.402;2022-10-16T13:41:18;99952.34;;;21.68;46.97
48882;BME280;57063;51.406;-2.402;2022-10-16T13:43:50;99944.59;;;21.73;46.69
48882;BME280;57063;51.406;-2.402;2022-10-16T13:46:21;99948.13;;;20.84;47.41
48882;BME280;57063;51.406;-2.402;2022-10-16T13:49:12;99950.66;;;21.82;46.90
48882;BME280;57063;51.406;-2.402;2022-10-16T13:51:38;99952.06;;;21.77;46.11
48882;BME280;57063;51.406;-2.402;2022-10-16T13:54:04;99943.91;;;21.86;45.95
48882;BME280;57063;51.406;-2.402;2022-10-16T13:56:31;99946.34;;;21.81;45.69
48882;BME280;57063;51.406;-2.402;2022-10-16T13:59:03;99940.91;;;21.74;45.92
48882;BME280;57063;51.406;-2.402;2022-10-16T14:01:35;99946.56;;;21.34;47.38
48882;BME280;57063;51.406;-2.402;2022-10-16T14:04:10;99940.97;;;20.99;47.14
48882;BME280;57063;51.406;-2.402;2022-10-16T14:06:41;99941.81;;;21.15;47.01
48882;BME280;57063;51.406;-2.402;2022-10-16T14:09:19;99935.16;;;21.41;46.84
48882;BME280;57063;51.406;-2.402;2022-10-16T14:11:49;99926.84;;;21.65;46.63
48882;BME280;57063;51.406;-2.402;2022-10-16T14:14:17;99923.84;;;20.94;46.63
48882;BME280;57063;51.406;-2.402;2022-10-16T14:16:43;99938.31;;;20.99;46.87
48882;BME280;57063;51.406;-2.402;2022-10-16T14:19:18;99947.06;;;20.93;46.67
48882;BME280;57063;51.406;-2.402;2022-10-16T14:21:44;99944.00;;;20.96;47.04
48882;BME280;57063;51.406;-2.402;2022-10-16T14:24:33;99933.91;;;20.54;48.15
48882;BME280;57063;51.406;-2.402;2022-10-16T14:27:00;99927.78;;;20.83;48.15
48882;BME280;57063;51.406;-2.402;2022-10-16T14:29:28;99933.13;;;20.83;48.49
48882;BME280;57063;51.406;-2.402;2022-10-16T14:32:05;99935.53;;;21.08;48.93
48882;BME280;57063;51.406;-2.402;2022-10-16T14:34:35;99925.13;;;20.83;49.94
48882;BME280;57063;51.406;-2.402;2022-10-16T14:37:09;99923.66;;;20.80;50.42
48882;BME280;57063;51.406;-2.402;2022-10-16T14:39:39;99927.78;;;20.83;51.01
48882;BME280;57063;51.406;-2.402;2022-10-16T14:42:14;99915.03;;;20.55;51.75
48882;BME280;57063;51.406;-2.402;2022-10-16T14:44:40;99915.38;;;20.75;51.83
48882;BME280;57063;51.406;-2.402;2022-10-16T14:47:08;99904.84;;;20.59;52.64
48882;BME280;57063;51.406;-2.402;2022-10-16T14:49:35;99910.59;;;21.15;52.36